Time;durP1;ratioP1;P1;durP2;ratioP2;P2;SDS_P1;SDS_P2;PMS_P1;PMS_P2;Temp;Humidity;BMP_temperature;BMP_pressure;BME280_temperature;BME280_humidity;BME280_pressure;Samples;Min_cycle;Max_cycle;Signal;HPM_P1;HPM_P2
2021/03/09 00:01:57;;;;;;;7.17;3.15;;;;;;;-3.81;63.52;100532.22;1774446;79;21110;-48
2021/03/09 00:04:27;;;;;;;8.18;3.40;;;;;;;-3.82;63.93;100532.27;1768834;80;21482;-47
2021/03/09 00:06:55;;;;;;;5.50;2.80;;;;;;;-3.79;64.02;100534.33;1745161;80;21759;-48
2021/03/09 00:09:33;;;;;;;5.45;2.47;;;;;;;-3.76;64.12;100530.84;1782707;78;21881;31
2021/03/09 00:15:03;;;;;;;4.03;2.15;;;;;;;-3.74;64.21;100533.80;1708039;81;21154;-47
2021/03/09 00:17:33;;;;;;;4.77;2.13;;;;;;;-3.71;64.15;100538.91;1754838;78;21598;-48
2021/03/09 00:20:03;;;;;;;7.25;2.72;;;;;;;-3.68;64.03;100542.31;1681133;83;21446;-47
2021/03/09 00:28:32;;;;;;;8.07;2.60;;;;;;;-3.65;63.96;100539.20;1713518;79;21664;-48
2021/03/09 00:34:03;;;;;;;5.20;2.58;;;;;;;-3.59;64.14;100535.66;1734868;78;21808;-48
2021/03/09 00:36:35;;;;;;;9.00;3.25;;;;;;;-3.54;63.96;100539.42;1753124;78;21975;31
2021/03/09 00:45:05;;;;;;;11.78;2.87;;;;;;;-3.53;64.09;100539.41;1732036;77;21489;-48
2021/03/09 00:47:34;;;;;;;7.42;3.05;;;;;;;-3.53;64.17;100539.84;1730837;78;21633;-48
2021/03/09 00:50:04;;;;;;;7.42;2.70;;;;;;;-3.50;64.17;100534.59;1693096;79;22269;-47
2021/03/09 00:52:32;;;;;;;6.83;2.42;;;;;;;-3.53;64.27;100535.52;1679214;82;21644;-48
2021/03/09 01:07:12;;;;;;;6.95;2.65;;;;;;;-3.38;64.46;100537.38;1718159;78;21135;-49
2021/03/09 01:09:40;;;;;;;5.05;2.20;;;;;;;-3.36;64.51;100543.38;1704765;78;21253;-48
2021/03/09 01:24:02;;;;;;;5.55;2.15;;;;;;;-2.89;64.26;100538.82;1743475;78;21179;-48
2021/03/09 01:26:31;;;;;;;4.35;2.12;;;;;;;-2.85;64.12;100542.20;1730863;78;21500;-48
2021/03/09 01:29:27;;;;;;;5.53;2.30;;;;;;;-2.86;64.08;100545.68;1716187;78;21615;-47
2021/03/09 01:32:06;;;;;;;4.22;2.30;;;;;;;-2.89;64.10;100540.58;1773525;78;21240;31
2021/03/09 01:43:35;;;;;;;5.65;2.80;;;;;;;-2.91;64.54;100547.06;1734641;81;21117;-47
2021/03/09 01:52:28;;;;;;;7.28;2.95;;;;;;;-3.06;64.84;100547.42;1702801;79;21038;-47
2021/03/09 01:54:56;;;;;;;8.70;3.15;;;;;;;-3.09;65.00;100550.95;1652425;85;21653;-47
2021/03/09 01:57:25;;;;;;;6.78;2.85;;;;;;;-3.16;65.27;100548.93;1765347;77;21467;-47
2021/03/09 01:59:53;;;;;;;7.05;3.33;;;;;;;-3.17;65.53;100554.16;1759898;77;22030;-47
2021/03/09 02:02:21;;;;;;;7.45;2.98;;;;;;;-3.17;65.71;100553.70;1728190;80;21241;-49
2021/03/09 02:05:07;;;;;;;6.78;2.83;;;;;;;-3.16;65.68;100550.22;1774310;77;21220;31
2021/03/09 02:07:36;;;;;;;6.00;2.50;;;;;;;-3.16;65.85;100555.41;1764903;78;21589;-48
2021/03/09 02:16:24;;;;;;;9.00;3.52;;;;;;;-3.14;65.84;100579.98;1743551;77;21859;-47
2021/03/09 02:19:23;;;;;;;5.80;2.55;;;;;;;-3.17;65.98;100579.59;1734296;82;21573;-48
2021/03/09 02:22:09;;;;;;;6.72;2.50;;;;;;;-3.17;65.96;100583.47;1762207;78;21149;31
2021/03/09 02:33:44;;;;;;;8.10;2.72;;;;;;;-3.23;66.64;100600.47;1756781;78;21600;-47
2021/03/09 02:39:30;;;;;;;8.63;2.50;;;;;;;-3.23;67.06;100601.77;1763807;77;21152;-47
2021/03/09 02:42:01;;;;;;;4.65;2.35;;;;;;;-3.23;67.16;100603.06;1728541;78;21978;-47
2021/03/09 02:44:38;;;;;;;3.12;1.95;;;;;;;-3.24;67.29;100600.48;1760002;78;21241;31
2021/03/09 02:53:11;;;;;;;4.53;2.20;;;;;;;-3.27;67.96;100602.71;1793169;78;21528;-47
2021/03/09 02:55:39;;;;;;;5.00;2.40;;;;;;;-3.25;68.42;100610.00;1767994;78;21443;-48
2021/03/09 02:58:08;;;;;;;3.90;2.35;;;;;;;-3.19;68.63;100615.05;1740947;77;21450;-48
2021/03/09 03:00:40;;;;;;;5.30;2.37;;;;;;;-3.14;68.53;100613.64;1808007;77;21153;31
2021/03/09 03:06:10;;;;;;;7.37;2.58;;;;;;;-3.02;68.20;100618.55;1810789;77;20960;-48
2021/03/09 03:11:56;;;;;;;5.40;2.45;;;;;;;-2.97;67.87;100611.97;1744876;78;21164;-48
2021/03/09 03:14:25;;;;;;;5.60;2.45;;;;;;;-2.95;67.62;100620.55;1660597;83;21662;-48
2021/03/09 03:17:10;;;;;;;5.65;2.87;;;;;;;-2.92;67.57;100618.35;1763426;77;21235;31
2021/03/09 03:19:40;;;;;;;6.80;2.65;;;;;;;-2.90;67.54;100620.01;1717871;81;21125;-48
2021/03/09 03:22:09;;;;;;;5.70;2.72;;;;;;;-2.87;67.56;100622.98;1696382;81;21621;-47
2021/03/09 03:24:39;;;;;;;5.75;2.60;;;;;;;-2.85;67.56;100632.41;1727481;81;21201;-47
2021/03/09 03:30:12;;;;;;;7.00;2.40;;;;;;;-2.85;67.96;100631.12;1785551;78;21631;-49
2021/03/09 03:36:04;;;;;;;3.15;1.95;;;;;;;-3.00;68.74;100643.11;1727017;78;21160;-47
2021/03/09 03:38:36;;;;;;;4.75;2.50;;;;;;;-3.07;69.16;100639.81;1771336;77;21684;-47
2021/03/09 03:41:12;;;;;;;8.83;2.30;;;;;;;-3.18;69.15;100650.38;1812472;77;21211;31
2021/03/09 03:43:40;;;;;;;4.75;2.27;;;;;;;-3.24;69.58;100658.73;1727330;78;21530;-47
2021/03/09 03:52:36;;;;;;;3.85;2.42;;;;;;;-3.33;70.01;100652.02;1693773;81;21169;-49
2021/03/09 03:58:25;;;;;;;6.92;3.37;;;;;;;-3.46;70.43;100653.56;1789075;77;26921;-48
2021/03/09 04:00:53;;;;;;;6.85;3.30;;;;;;;-3.48;70.53;100654.45;1775520;78;21864;-48
2021/03/09 04:03:21;;;;;;;7.05;2.45;;;;;;;-3.48;70.53;100664.38;1763921;78;21983;-48
2021/03/09 04:06:10;;;;;;;5.92;3.12;;;;;;;-3.48;70.57;100663.52;1782477;77;21267;31
2021/03/09 04:32:41;;;;;;;6.25;2.85;;;;;;;-3.49;70.57;100689.84;1684906;83;21145;-47
2021/03/09 04:35:12;;;;;;;6.25;2.77;;;;;;;-3.47;70.65;100703.61;1674228;83;21587;-48
2021/03/09 04:37:40;;;;;;;6.00;2.90;;;;;;;-3.43;70.65;100694.91;1747180;77;21434;-48
2021/03/09 04:40:10;;;;;;;6.12;2.55;;;;;;;-3.39;70.62;100699.57;1811411;77;21090;-48
2021/03/09 04:45:41;;;;;;;4.17;2.08;;;;;;;-3.34;70.94;100705.97;1747823;77;21441;-48
2021/03/09 04:48:10;;;;;;;4.72;2.12;;;;;;;-3.31;70.95;100709.80;1706813;82;21478;-48
2021/03/09 04:51:22;;;;;;;;;;;;;;;;;;;;;
2021/03/09 04:57:17;;;;;;;5.53;2.52;;;;;;;-3.25;70.82;100716.15;1741837;77;21004;-48
2021/03/09 04:59:45;;;;;;;5.28;2.10;;;;;;;-3.12;70.65;100714.99;1733595;79;21428;-48
2021/03/09 05:05:19;;;;;;;5.65;2.70;;;;;;;-2.93;69.97;100718.97;1700329;80;21457;-48
2021/03/09 05:17:14;;;;;;;7.67;3.12;;;;;;;-2.77;68.30;100737.19;1784888;78;21463;-47
2021/03/09 05:23:16;;;;;;;4.65;3.08;;;;;;;-2.66;68.09;100756.38;1746457;78;21134;31
2021/03/09 05:25:45;;;;;;;6.85;3.85;;;;;;;-2.62;68.02;100757.16;1734490;78;21259;-47
2021/03/09 05:28:12;;;;;;;6.42;3.77;;;;;;;-2.59;68.11;100760.55;1700667;79;21518;-47
2021/03/09 05:30:47;;;;;;;9.75;4.00;;;;;;;-2.56;67.67;100767.39;1714653;78;21323;31
2021/03/09 05:36:24;;;;;;;6.53;2.92;;;;;;;-2.76;67.25;100778.19;1753524;78;21142;31
2021/03/09 05:39:16;;;;;;;5.65;3.25;;;;;;;-3.13;67.60;100780.61;1751311;78;21631;31
2021/03/09 05:41:45;;;;;;;5.67;3.17;;;;;;;-3.54;68.82;100792.59;1706826;83;21675;-48
2021/03/09 05:44:13;;;;;;;5.25;2.77;;;;;;;-3.91;70.21;100793.19;1707010;83;21417;-47
2021/03/09 05:47:10;;;;;;;9.20;2.90;;;;;;;-4.09;70.79;100793.88;1732896;78;21178;-47
2021/03/09 05:49:47;;;;;;;6.72;3.20;;;;;;;-4.18;71.48;100798.76;1789482;77;21054;31
2021/03/09 05:55:18;;;;;;;5.50;2.95;;;;;;;-4.30;72.17;100801.52;1715944;82;21938;-48
2021/03/09 06:19:18;;;;;;;8.00;3.35;;;;;;;-3.35;67.82;100843.59;1705719;82;21655;-48
2021/03/09 06:25:23;;;;;;;7.90;2.90;;;;;;;-3.21;65.90;100843.37;1758912;78;21180;31
2021/03/09 06:42:33;;;;;;;9.05;2.92;;;;;;;-2.82;64.13;100859.03;1717018;81;21142;-48
2021/03/09 06:45:18;;;;;;;5.95;2.60;;;;;;;-2.66;64.46;100860.04;1766581;78;21050;31
2021/03/09 06:47:57;;;;;;;5.62;2.65;;;;;;;-2.45;64.30;100865.69;1752037;78;21071;31
2021/03/09 06:50:38;;;;;;;11.50;3.52;;;;;;;-2.27;63.84;100865.73;1737042;78;21230;31
2021/03/09 06:53:27;;;;;;;6.27;2.43;;;;;;;-2.12;63.37;100862.81;1739563;79;21464;31
2021/03/09 06:55:55;;;;;;;6.55;2.37;;;;;;;-1.98;62.42;100865.55;1692873;79;21603;-51
2021/03/09 06:58:36;;;;;;;5.37;2.25;;;;;;;-1.90;61.36;100866.66;1734349;79;21145;31
2021/03/09 07:01:18;;;;;;;4.80;2.50;;;;;;;-1.89;59.68;100873.56;1710908;79;21237;31
2021/03/09 07:15:54;;;;;;;5.03;2.30;;;;;;;-1.71;59.43;100895.20;1781872;78;21145;31
2021/03/09 07:18:24;;;;;;;5.67;2.22;;;;;;;-1.64;59.09;100890.74;1749369;78;21272;-47
2021/03/09 07:23:50;;;;;;;3.85;1.75;;;;;;;-1.72;58.27;100886.17;1675861;79;21750;-48
2021/03/09 07:26:18;;;;;;;8.25;2.35;;;;;;;-1.83;58.14;100894.19;1622096;81;21198;-47
2021/03/09 07:38:25;;;;;;;6.33;2.52;;;;;;;-2.33;55.96;100899.57;1796540;77;21395;-48
2021/03/09 07:40:53;;;;;;;3.98;1.92;;;;;;;-2.45;56.28;100900.68;1791428;79;21155;-48
2021/03/09 07:43:22;;;;;;;5.00;2.33;;;;;;;-2.48;56.45;100904.63;1717907;79;21145;-48
2021/03/09 07:49:22;;;;;;;6.87;2.92;;;;;;;-2.48;56.79;100911.11;1747364;78;21072;31
2021/03/09 07:52:20;;;;;;;7.08;2.50;;;;;;;-2.45;57.49;100900.68;1646285;84;21204;-47
2021/03/09 07:58:20;;;;;;;10.50;2.80;;;;;;;-2.34;59.04;100905.64;1703896;78;21158;31
2021/03/09 08:00:58;;;;;;;5.62;2.55;;;;;;;-2.27;60.16;100906.80;1661497;84;21945;-47
2021/03/09 08:03:30;;;;;;;7.50;2.95;;;;;;;-2.18;60.70;100903.61;1713058;83;22101;-48
2021/03/09 08:06:02;;;;;;;5.55;2.67;;;;;;;-2.13;61.21;100895.28;1714130;83;22050;-47
2021/03/09 08:08:40;;;;;;;5.55;2.70;;;;;;;-2.00;61.57;100912.27;1713736;83;21198;-48
2021/03/09 08:11:25;;;;;;;7.25;2.83;;;;;;;-1.94;61.59;100910.00;1713765;83;21595;-48
2021/03/09 08:14:10;;;;;;;6.70;3.10;;;;;;;-1.91;61.86;100907.77;1714133;83;21605;-48
2021/03/09 08:16:42;;;;;;;9.53;4.12;;;;;;;-1.83;62.49;100908.45;1710549;83;21550;-49
2021/03/09 08:19:30;;;;;;;5.62;3.50;;;;;;;-1.68;62.09;100906.81;1711328;83;22029;-48
2021/03/09 08:22:04;;;;;;;5.75;3.12;;;;;;;-1.57;61.88;100913.05;1751885;78;21109;-49
2021/03/09 08:24:50;;;;;;;9.73;5.08;;;;;;;-1.41;61.18;100902.30;1848635;74;28599;-48
2021/03/09 08:27:33;;;;;;;6.60;3.65;;;;;;;-1.39;60.84;100902.69;1820218;75;21830;-48
2021/03/09 08:30:26;;;;;;;7.15;3.45;;;;;;;-1.34;60.67;100903.86;1816438;77;22067;-48
2021/03/09 08:36:32;;;;;;;15.85;6.15;;;;;;;-1.28;58.76;100910.20;1791704;78;20966;-48
2021/03/09 08:39:11;;;;;;;7.22;2.45;;;;;;;-1.39;58.46;100910.91;1803092;78;20970;-48
2021/03/09 08:41:44;;;;;;;5.75;1.98;;;;;;;-1.53;57.48;100921.63;1801866;78;21554;-47
2021/03/09 08:44:21;;;;;;;5.62;3.33;;;;;;;-1.65;57.55;100911.94;1791005;78;21671;-48
2021/03/09 08:47:07;;;;;;;5.95;2.80;;;;;;;-1.71;57.89;100921.16;1793525;79;21561;-48
2021/03/09 08:49:45;;;;;;;5.25;2.67;;;;;;;-1.77;57.07;100925.19;1787567;78;20994;-48
2021/03/09 08:52:24;;;;;;;5.45;2.70;;;;;;;-1.87;56.81;100923.25;1781445;79;21125;-49
2021/03/09 08:54:52;;;;;;;6.60;2.87;;;;;;;-1.93;56.77;100924.69;1780798;79;21099;-48
2021/03/09 08:57:25;;;;;;;8.48;2.98;;;;;;;-1.94;56.31;100930.76;1768658;79;21615;-49
2021/03/09 09:00:07;;;;;;;5.50;2.80;;;;;;;-1.91;56.43;100935.88;1805867;78;21155;-48
2021/03/09 09:02:43;;;;;;;5.75;2.98;;;;;;;-1.88;55.64;100928.46;1785811;78;21143;-48
2021/03/09 09:05:12;;;;;;;7.15;2.58;;;;;;;-1.87;54.97;100924.98;1795732;78;21835;-48
2021/03/09 09:07:43;;;;;;;5.12;2.55;;;;;;;-1.80;54.40;100926.55;1804888;78;21081;-48
2021/03/09 09:10:22;;;;;;;10.23;4.00;;;;;;;-1.74;53.64;100926.88;1805742;78;21454;-48
2021/03/09 09:12:53;;;;;;;7.37;3.22;;;;;;;-1.72;54.02;100935.03;1776348;79;21436;-48
2021/03/09 09:15:25;;;;;;;6.47;2.83;;;;;;;-1.57;54.46;100934.28;1799992;78;20986;-48
2021/03/09 09:17:59;;;;;;;6.10;2.62;;;;;;;-1.40;53.97;100939.94;1795042;78;21103;-48
2021/03/09 09:20:41;;;;;;;4.42;2.40;;;;;;;-1.24;53.65;100944.77;1797479;78;20978;-48
2021/03/09 09:26:16;;;;;;;5.37;2.60;;;;;;;-1.04;52.17;100947.70;1797042;76;21133;-47
2021/03/09 09:28:45;;;;;;;4.37;2.42;;;;;;;-0.97;51.40;100951.02;1755513;76;21497;-49
2021/03/09 09:46:28;;;;;;;7.83;2.40;;;;;;;-0.66;52.90;100964.97;1724676;80;21148;-48
2021/03/09 09:48:57;;;;;;;6.78;2.58;;;;;;;-0.68;53.49;100968.06;1742622;78;21878;-49
2021/03/09 09:51:25;;;;;;;5.70;2.27;;;;;;;-0.79;52.97;100965.75;1756426;78;22107;-48
2021/03/09 09:56:53;;;;;;;5.15;2.40;;;;;;;-0.98;53.18;100964.04;1750112;77;21100;-49
2021/03/09 09:59:28;;;;;;;4.45;2.27;;;;;;;-0.97;53.50;100974.84;1737979;81;21449;-50
2021/03/09 10:01:56;;;;;;;4.35;2.20;;;;;;;-1.02;53.18;100978.87;1750915;79;21516;-48
2021/03/09 10:14:35;;;;;;;6.07;2.70;;;;;;;-1.04;55.74;100981.95;1756978;77;21116;-48
2021/03/09 10:20:23;;;;;;;6.35;3.10;;;;;;;-1.14;57.36;100976.13;1707757;80;21612;-49
2021/03/09 10:29:21;;;;;;;5.30;2.25;;;;;;;-1.14;57.79;100983.93;1712351;78;21145;-48
2021/03/09 10:47:06;;;;;;;3.95;2.33;;;;;;;-1.13;56.33;100983.03;1788685;74;21326;-48
2021/03/09 10:49:35;;;;;;;8.18;2.85;;;;;;;-1.04;56.07;100985.38;1792596;74;21463;-48
2021/03/09 10:52:23;;;;;;;5.80;2.92;;;;;;;-0.94;55.50;100987.33;1776643;77;21240;31
2021/03/09 10:54:53;;;;;;;4.00;2.22;;;;;;;-0.91;54.40;100985.09;1780288;74;21136;-48
2021/03/09 11:03:53;;;;;;;6.10;2.92;;;;;;;-1.06;54.15;100992.36;1771768;74;21041;-48
2021/03/09 11:12:46;;;;;;;7.65;3.00;;;;;;;-1.06;53.44;100998.02;1824734;74;21343;-49
2021/03/09 11:15:14;;;;;;;4.30;2.17;;;;;;;-1.06;53.41;100997.56;1830411;74;21578;-48
2021/03/09 11:17:44;;;;;;;4.53;2.20;;;;;;;-1.06;53.41;100994.13;1768482;74;22124;-49
2021/03/09 11:26:25;;;;;;;5.97;2.92;;;;;;;-0.64;54.87;100996.98;1742104;79;21511;-48
2021/03/09 11:28:53;;;;;;;4.47;2.85;;;;;;;-0.15;54.59;100985.72;1746652;78;21835;-48
2021/03/09 11:31:25;;;;;;;4.47;2.52;;;;;;;0.29;53.43;100993.14;1799963;78;21995;-48
2021/03/09 11:36:53;;;;;;;4.53;2.05;;;;;;;0.93;50.39;100985.55;1719549;80;21580;-47
2021/03/09 11:42:45;;;;;;;6.92;2.15;;;;;;;1.26;47.97;100974.05;1761868;77;21596;-48
2021/03/09 11:45:13;;;;;;;4.25;2.22;;;;;;;1.42;46.64;100976.54;1737664;79;22020;-48
2021/03/09 11:47:54;;;;;;;5.12;2.37;;;;;;;1.55;46.15;100983.95;1735520;77;21619;31
2021/03/09 11:53:23;;;;;;;4.85;2.42;;;;;;;1.73;44.62;100978.05;1732162;79;21530;-47
2021/03/09 12:01:52;;;;;;;6.33;2.35;;;;;;;1.64;42.88;100994.50;1777972;77;21181;31
2021/03/09 12:04:21;;;;;;;4.95;2.10;;;;;;;1.41;42.26;100990.48;1753350;76;21859;-48
2021/03/09 12:06:50;;;;;;;4.97;2.58;;;;;;;1.17;42.41;100987.80;1792936;76;21614;-47
2021/03/09 12:09:47;;;;;;;5.47;3.00;;;;;;;0.91;42.60;100993.88;1786467;76;21200;-47
2021/03/09 12:12:25;;;;;;;4.78;2.37;;;;;;;0.61;42.92;100993.93;1773733;76;22348;31
2021/03/09 12:32:53;;;;;;;6.83;3.08;;;;;;;-0.25;47.14;101003.77;1772183;79;21137;-48
2021/03/09 12:36:23;;;;;;;6.15;2.55;;;;;;;-0.09;47.24;101000.33;1739914;79;21943;-47
2021/03/09 12:47:16;;;;;;;6.53;3.15;;;;;;;0.65;44.85;101002.48;1692550;81;21185;-48
2021/03/09 12:49:44;;;;;;;6.55;3.17;;;;;;;0.79;44.21;101003.38;1682567;81;21756;-48
2021/03/09 12:52:13;;;;;;;3.42;1.92;;;;;;;0.83;43.00;101008.91;1681800;82;21121;-48
2021/03/09 12:54:41;;;;;;;8.13;2.55;;;;;;;0.80;42.62;101007.70;1682395;82;21283;-47
2021/03/09 12:57:09;;;;;;;5.62;2.47;;;;;;;0.70;42.77;101005.81;1680025;82;21157;-48
2021/03/09 12:59:37;;;;;;;4.47;2.25;;;;;;;0.61;43.23;101009.56;1716952;80;21137;-47
2021/03/09 13:02:05;;;;;;;3.25;2.10;;;;;;;0.60;42.67;101007.86;1709707;80;21124;-48
2021/03/09 13:04:33;;;;;;;3.72;2.10;;;;;;;0.49;42.51;101002.12;1716428;80;21536;-48
2021/03/09 13:07:00;;;;;;;4.65;2.15;;;;;;;0.42;42.89;101010.11;1726599;80;22541;-48
2021/03/09 13:09:28;;;;;;;3.87;2.22;;;;;;;0.37;42.61;101010.70;1716834;80;21214;-47
2021/03/09 13:11:57;;;;;;;3.05;1.95;;;;;;;0.27;43.14;101015.77;1708396;81;21583;-48
2021/03/09 13:14:25;;;;;;;4.65;2.45;;;;;;;0.18;43.22;101014.30;1709364;80;21125;-47
2021/03/09 13:16:53;;;;;;;6.15;2.40;;;;;;;0.08;43.81;101014.16;1708653;80;21121;-48
2021/03/09 13:19:23;;;;;;;3.25;1.80;;;;;;;-0.03;43.54;101014.47;1715165;80;22131;-47
2021/03/09 13:21:52;;;;;;;3.37;2.27;;;;;;;-0.18;44.05;101011.39;1709382;80;21156;-47
2021/03/09 13:24:20;;;;;;;3.58;2.10;;;;;;;-0.23;44.16;101021.06;1718721;80;21202;-48
2021/03/09 13:26:50;;;;;;;5.35;2.85;;;;;;;-0.17;45.00;101016.13;1712436;80;21154;-47
2021/03/09 13:29:22;;;;;;;5.55;2.52;;;;;;;0.03;44.57;101018.64;1708766;80;21125;-47
2021/03/09 13:31:51;;;;;;;5.05;2.55;;;;;;;0.22;43.91;101018.95;1710358;80;21843;-47
2021/03/09 13:34:20;;;;;;;6.65;2.87;;;;;;;0.36;43.41;101020.71;1709377;80;21169;-47
2021/03/09 13:36:50;;;;;;;3.27;1.82;;;;;;;0.46;43.46;101023.92;1710107;80;21585;-48
2021/03/09 13:39:19;;;;;;;3.55;2.27;;;;;;;0.50;42.66;101022.06;1674932;82;21153;-48
2021/03/09 13:41:46;;;;;;;4.47;2.22;;;;;;;0.40;42.37;101020.19;1680943;82;21162;-47
2021/03/09 13:44:14;;;;;;;4.05;2.17;;;;;;;0.33;42.57;101027.77;1743357;80;21976;-47
2021/03/09 13:46:44;;;;;;;4.22;2.27;;;;;;;0.26;42.41;101023.17;1735732;80;21155;-47
2021/03/09 13:49:13;;;;;;;4.90;2.30;;;;;;;0.24;42.35;101021.06;1738463;79;21947;-47
2021/03/09 13:51:41;;;;;;;6.12;2.87;;;;;;;0.24;42.63;101019.33;1742557;79;21140;-47
2021/03/09 13:54:09;;;;;;;6.40;2.60;;;;;;;0.28;42.52;101028.77;1754654;79;21150;-48
2021/03/09 13:56:37;;;;;;;4.10;2.15;;;;;;;0.28;42.37;101022.25;1742307;80;21617;-48
2021/03/09 13:59:05;;;;;;;3.67;2.30;;;;;;;0.27;42.39;101023.58;1737805;79;22048;-47
2021/03/09 14:01:33;;;;;;;6.47;2.50;;;;;;;0.23;41.41;101027.17;1740724;80;21120;-47
2021/03/09 14:04:01;;;;;;;4.58;2.33;;;;;;;0.03;41.37;101032.48;1739355;80;21136;-48
2021/03/09 14:06:29;;;;;;;4.45;2.02;;;;;;;-0.20;41.38;101029.22;1736334;80;21120;-47
2021/03/09 14:08:57;;;;;;;4.20;2.20;;;;;;;-0.40;41.62;101029.77;1736866;80;21371;-48
2021/03/09 14:11:25;;;;;;;6.90;2.90;;;;;;;-0.53;41.75;101027.94;1758634;79;21021;-47
2021/03/09 14:13:53;;;;;;;3.35;2.10;;;;;;;-0.66;42.03;101026.95;1742209;79;21148;-48
2021/03/09 14:16:24;;;;;;;4.80;2.40;;;;;;;-0.73;42.28;101025.81;1729505;79;21128;-48
2021/03/09 14:18:54;;;;;;;3.12;2.00;;;;;;;-0.81;42.39;101024.26;1736702;80;21118;-48
2021/03/09 14:21:22;;;;;;;6.17;2.92;;;;;;;-0.84;42.35;101027.39;1737154;80;21842;-48
2021/03/09 14:23:50;;;;;;;6.80;2.12;;;;;;;-0.91;42.69;101029.27;1747928;78;21160;-47
2021/03/09 14:26:18;;;;;;;5.53;2.12;;;;;;;-0.94;42.81;101029.34;1738621;80;21594;-47
2021/03/09 14:28:46;;;;;;;6.90;3.22;;;;;;;-0.98;43.51;101031.17;1737517;80;21518;-48
2021/03/09 14:31:17;;;;;;;7.20;2.90;;;;;;;-0.93;44.16;101034.52;1742226;80;21985;-49
2021/03/09 14:33:45;;;;;;;7.17;2.45;;;;;;;-0.81;44.58;101035.95;1744757;79;21198;-47
2021/03/09 14:36:13;;;;;;;4.60;2.17;;;;;;;-0.70;44.35;101040.91;1783042;76;21390;-49
2021/03/09 14:44:50;;;;;;;3.98;2.22;;;;;;;-0.58;43.89;101034.54;1788667;77;21495;-48
2021/03/09 14:47:19;;;;;;;5.65;2.72;;;;;;;-0.56;43.51;101035.36;1772163;79;22007;-48
2021/03/09 14:50:09;;;;;;;7.95;3.20;;;;;;;-0.54;43.46;101036.17;1759713;77;21256;-54
2021/03/09 14:55:55;;;;;;;6.33;3.02;;;;;;;-0.53;43.40;101035.28;1767468;77;21640;-47
2021/03/09 14:58:24;;;;;;;5.85;2.92;;;;;;;-0.49;43.54;101036.03;1754733;76;21260;31
2021/03/09 15:12:50;;;;;;;6.87;2.60;;;;;;;-1.25;43.13;101032.67;1737079;77;21124;-47
2021/03/09 15:18:33;;;;;;;12.58;5.67;;;;;;;-1.60;43.98;101032.99;1790092;77;21574;-47
2021/03/09 15:27:21;;;;;;;6.40;3.70;;;;;;;-1.99;45.01;101054.08;1762870;77;21108;-47
2021/03/09 15:29:50;;;;;;;7.00;3.25;;;;;;;-2.06;45.28;101056.83;1757222;78;21389;-47
2021/03/09 15:32:48;;;;;;;7.53;3.87;;;;;;;-2.11;45.58;101059.49;1675767;81;21518;-47
2021/03/09 15:35:45;;;;;;;5.10;2.60;;;;;;;-2.15;46.00;101056.57;1732973;77;21158;-46
2021/03/09 15:38:23;;;;;;;7.72;3.75;;;;;;;-2.16;46.03;101060.05;1765720;77;21154;31
2021/03/09 15:52:54;;;;;;;8.53;4.78;;;;;;;-2.30;48.01;101083.19;1701732;82;21137;-48
2021/03/09 15:55:22;;;;;;;11.63;5.78;;;;;;;-2.05;48.36;101089.67;1731451;79;21124;-48
2021/03/09 15:57:50;;;;;;;15.50;8.83;;;;;;;-1.85;48.41;101086.69;1734182;80;21140;-47
2021/03/09 16:00:19;;;;;;;16.67;9.48;;;;;;;-1.65;48.22;101090.22;1730890;79;21168;-48
2021/03/09 16:02:48;;;;;;;14.87;8.40;;;;;;;-1.49;48.10;101097.23;1729772;79;21195;-47
2021/03/09 16:05:19;;;;;;;12.28;7.55;;;;;;;-1.35;48.31;101096.52;1728114;81;21520;-47
2021/03/09 16:07:46;;;;;;;11.97;6.30;;;;;;;-1.21;48.49;101104.45;1731480;81;21124;-47
2021/03/09 16:10:15;;;;;;;10.13;4.60;;;;;;;-1.10;48.45;101110.28;1732436;81;21206;-48
2021/03/09 16:12:43;;;;;;;9.90;4.03;;;;;;;-1.00;48.48;101108.74;1730470;81;21137;-48
2021/03/09 16:15:11;;;;;;;8.80;3.37;;;;;;;-0.93;48.34;101111.19;1727270;81;21636;-48
2021/03/09 16:17:44;;;;;;;7.80;3.60;;;;;;;-0.86;48.16;101114.95;1734120;79;21106;-48
2021/03/09 16:20:12;;;;;;;8.58;3.52;;;;;;;-0.80;47.97;101114.81;1731433;79;21502;-47
2021/03/09 16:22:40;;;;;;;5.55;3.27;;;;;;;-0.75;47.87;101122.06;1729583;79;22537;-47
2021/03/09 16:25:09;;;;;;;5.67;2.83;;;;;;;-0.73;47.44;101116.38;1735247;79;21010;-48
2021/03/09 16:27:38;;;;;;;6.15;2.95;;;;;;;-0.83;47.38;101118.32;1744226;79;21137;-47
2021/03/09 16:30:07;;;;;;;6.42;2.90;;;;;;;-1.09;47.48;101122.38;1742877;79;21125;-47
2021/03/09 16:32:35;;;;;;;8.30;3.40;;;;;;;-1.38;47.92;101122.97;1721886;79;21128;-47
2021/03/09 16:35:08;;;;;;;8.55;3.35;;;;;;;-1.58;48.55;101128.12;1739467;79;21782;-47
2021/03/09 16:37:36;;;;;;;6.83;3.77;;;;;;;-1.75;48.86;101128.91;1713919;81;21140;-47
2021/03/09 16:40:06;;;;;;;9.70;4.12;;;;;;;-1.90;49.32;101133.50;1746916;79;21140;-47
2021/03/09 16:42:34;;;;;;;6.62;3.35;;;;;;;-2.04;49.89;101136.33;1729948;80;21133;-48
2021/03/09 16:45:06;;;;;;;5.65;3.08;;;;;;;-2.17;50.59;101136.98;1733702;81;21926;-47
2021/03/09 16:47:34;;;;;;;7.75;3.72;;;;;;;-2.26;51.03;101141.91;1733755;79;21714;-47
2021/03/09 16:50:03;;;;;;;8.48;4.00;;;;;;;-2.33;51.57;101148.07;1731164;79;21153;-49
2021/03/09 16:52:31;;;;;;;6.62;3.05;;;;;;;-2.37;51.94;101147.70;1772065;77;22079;-49
2021/03/09 16:54:59;;;;;;;13.30;4.45;;;;;;;-2.39;52.01;101153.36;1772599;78;21137;-49
2021/03/09 16:57:27;;;;;;;9.65;4.10;;;;;;;-2.43;52.34;101151.69;1749836;79;21708;-48
2021/03/09 16:59:54;;;;;;;10.13;4.25;;;;;;;-2.45;52.36;101152.99;1759037;78;22827;-48
2021/03/09 17:02:22;;;;;;;10.72;4.78;;;;;;;-2.45;52.66;101158.63;1763786;78;21140;-47
2021/03/09 17:04:52;;;;;;;7.80;4.85;;;;;;;-2.44;52.68;101161.64;1762251;78;22015;-47
2021/03/09 17:07:22;;;;;;;7.28;3.95;;;;;;;-2.44;52.79;101160.34;1755283;78;21116;-48
2021/03/09 17:09:50;;;;;;;10.58;5.67;;;;;;;-2.46;52.88;101166.84;1756327;80;21604;-47
2021/03/09 17:12:19;;;;;;;11.00;5.78;;;;;;;-2.49;52.98;101166.88;1755918;80;21620;-48
2021/03/09 17:14:47;;;;;;;15.35;6.47;;;;;;;-2.52;52.75;101172.11;1761884;77;21143;-47
2021/03/09 17:17:16;;;;;;;12.95;6.65;;;;;;;-2.54;52.65;101171.28;1770100;77;21010;-48
2021/03/09 17:19:46;;;;;;;12.25;6.72;;;;;;;-2.57;52.55;101181.27;1770327;77;21150;-48
2021/03/09 17:22:14;;;;;;;9.30;5.87;;;;;;;-2.59;52.59;101177.84;1761454;78;21137;-48
2021/03/09 17:24:42;;;;;;;12.53;5.72;;;;;;;-2.60;52.87;101176.13;1779037;77;21417;-46
2021/03/09 17:27:11;;;;;;;7.03;3.70;;;;;;;-2.60;52.69;101173.54;1764288;77;21134;-48
2021/03/09 17:29:40;;;;;;;8.85;4.08;;;;;;;-2.58;51.05;101178.69;1768628;77;21522;-47
2021/03/09 17:32:08;;;;;;;10.72;5.53;;;;;;;-2.52;51.15;101183.36;1781890;77;21129;-47
2021/03/09 17:34:38;;;;;;;12.45;6.80;;;;;;;-2.34;51.42;101182.66;1778776;77;21613;-47
2021/03/09 17:37:06;;;;;;;12.55;6.08;;;;;;;-2.13;51.40;101185.80;1774546;77;21647;-47
2021/03/09 17:39:35;;;;;;;11.60;4.25;;;;;;;-1.92;51.24;101193.66;1771498;80;21002;-47
2021/03/09 17:42:03;;;;;;;9.30;3.92;;;;;;;-1.75;50.79;101193.34;1766149;77;21560;-47
2021/03/09 17:44:31;;;;;;;6.22;3.40;;;;;;;-1.57;50.26;101197.80;1763230;80;21125;-48
2021/03/09 17:46:59;;;;;;;8.20;3.47;;;;;;;-1.45;49.89;101206.66;1763913;80;21121;-47
2021/03/09 17:49:28;;;;;;;9.00;4.53;;;;;;;-1.36;49.59;101199.98;1766910;80;21422;-48
2021/03/09 17:51:56;;;;;;;9.08;5.75;;;;;;;-1.29;49.25;101199.41;1717292;81;21157;-48
2021/03/09 17:54:23;;;;;;;12.45;6.35;;;;;;;-1.22;48.91;101206.66;1721633;82;21145;-48
2021/03/09 17:56:52;;;;;;;11.15;5.60;;;;;;;-1.19;48.58;101214.39;1746261;81;21145;-49
2021/03/09 17:59:20;;;;;;;11.25;6.28;;;;;;;-1.19;48.32;101209.19;1725680;81;21137;-48
2021/03/09 18:01:49;;;;;;;11.45;6.12;;;;;;;-1.20;48.43;101207.48;1746367;81;22054;-49
2021/03/09 18:04:17;;;;;;;23.87;12.50;;;;;;;-1.16;48.42;101213.45;1728561;80;21141;-48
2021/03/09 18:06:45;;;;;;;18.32;10.10;;;;;;;-1.14;48.33;101217.75;1735834;81;21168;-52
2021/03/09 18:09:13;;;;;;;17.90;7.92;;;;;;;-1.25;47.72;101215.81;1720499;80;21614;-48
2021/03/09 18:11:42;;;;;;;17.87;10.58;;;;;;;-1.49;47.71;101212.33;1726124;82;21004;-48
2021/03/09 18:14:10;;;;;;;108.78;59.45;;;;;;;-1.72;47.95;101220.55;1724912;82;21186;-48
2021/03/09 18:16:38;;;;;;;91.02;49.58;;;;;;;-1.94;48.50;101220.91;1719753;82;21153;-47
2021/03/09 18:19:08;;;;;;;41.02;18.30;;;;;;;-2.13;48.98;101220.81;1744377;80;21425;-48
2021/03/09 18:21:37;;;;;;;37.00;15.58;;;;;;;-2.28;49.35;101222.77;1746084;81;21625;-49